Time,TemperatureF,DewpointF,PressureIn,WindDirection,WindDirectionDegrees,WindSpeedMPH,WindSpeedGustMPH,Humidity,HourlyPrecipIn,Conditions,Clouds,dailyrainin,SoftwareType,DateUTC
2013-06-04 00:04:00,63.8,55.0,29.86,SSE,168,8.0,13.0,73,0.00,,SCT250,0.00,VWS V14.01,2013-06-04 05:04:00,
2013-06-04 00:09:00,63.6,55.2,29.88,South,177,7.0,7.0,74,0.00,,SCT250,0.00,VWS V14.01,2013-06-04 05:09:00,
2013-06-04 00:14:00,63.5,55.1,29.88,SE,137,5.0,8.0,74,0.00,,SCT250,0.00,VWS V14.01,2013-06-04 05:14:00,
2013-06-04 00:20:00,63.3,54.9,29.88,South,178,5.0,5.0,74,0.00,,SCT250,0.00,VWS V14.01,2013-06-04 05:20:00,
2013-06-04 00:26:00,63.1,55.1,29.88,SSE,152,4.0,6.0,75,0.00,,SCT250,0.00,VWS V14.01,2013-06-04 05:26:00,
2013-06-04 00:31:00,63.0,55.0,29.88,SSE,157,4.0,8.0,75,0.00,,SCT250,0.00,VWS V14.01,2013-06-04 05:31:00,
2013-06-04 00:36:00,62.8,55.1,29.88,SSE,168,2.0,6.0,76,0.00,,SCT250,0.00,VWS V14.01,2013-06-04 05:36:00,
2013-06-04 00:42:00,62.7,55.0,29.88,ESE,120,4.0,4.0,76,0.00,,SCT250,0.00,VWS V14.01,2013-06-04 05:42:00,
2013-06-04 00:47:00,62.5,54.8,29.88,SE,143,2.0,2.0,76,0.00,,SCT250,0.00,VWS V14.01,2013-06-04 05:47:00,
2013-06-04 00:52:00,62.3,54.7,29.88,SE,129,2.0,2.0,76,0.00,,SCT250,0.00,VWS V14.01,2013-06-04 05:52:00,
2013-06-04 00:57:00,62.0,54.7,29.87,East,100,0.0,3.0,77,0.00,,SCT250,0.00,VWS V14.01,2013-06-04 05:57:00,
2013-06-04 01:02:00,61.8,54.5,29.87,East,90,6.0,6.0,77,0.00,,SCT250,0.00,VWS V14.01,2013-06-04 06:02:00,
2013-06-04 01:07:00,61.8,54.9,29.86,East,89,2.0,2.0,78,0.00,,SCT250,0.00,VWS V14.01,2013-06-04 06:07:00,
2013-06-04 01:12:00,61.7,54.8,29.86,ESE,114,1.0,3.0,78,0.00,,SCT250,0.00,VWS V14.01,2013-06-04 06:12:00,
2013-06-04 01:17:00,61.6,54.7,29.86,SE,129,2.0,5.0,78,0.00,,SCT250,0.00,VWS V14.01,2013-06-04 06:17:00,
2013-06-04 01:22:00,61.5,54.6,29.86,SE,137,2.0,7.0,78,0.00,,SCT250,0.00,VWS V14.01,2013-06-04 06:22:00,
2013-06-04 01:27:00,61.4,54.5,29.86,East,88,0.0,6.0,78,0.00,,SCT250,0.00,VWS V14.01,2013-06-04 06:27:00,
2013-06-04 01:32:00,61.3,54.7,29.85,ESE,114,1.0,4.0,79,0.00,,SCT250,0.00,VWS V14.01,2013-06-04 06:32:00,
2013-06-04 01:37:00,61.2,54.6,29.85,ESE,115,0.0,5.0,79,0.00,,SCT250,0.00,VWS V14.01,2013-06-04 06:37:00,
2013-06-04 01:43:00,61.1,54.5,29.85,East,100,2.0,7.0,79,0.00,,SCT250,0.00,VWS V14.01,2013-06-04 06:43:00,
2013-06-04 01:48:00,61.0,54.5,29.85,ESE,104,2.0,7.0,79,0.00,,SCT250,0.00,VWS V14.01,2013-06-04 06:48:00,
2013-06-04 02:31:00,60.8,54.6,29.84,SE,134,7.0,7.0,80,0.00,,SCT250,0.00,VWS V14.01,2013-06-04 07:31:00,
2013-06-04 02:36:00,60.8,54.6,29.84,East,96,0.0,5.0,80,0.00,,SCT250,0.00,VWS V14.01,2013-06-04 07:36:00,
2013-06-04 02:41:00,60.7,54.5,29.84,East,100,1.0,6.0,80,0.00,,SCT250,0.00,VWS V14.01,2013-06-04 07:41:00,
2013-06-04 02:46:00,60.6,54.4,29.85,ENE,72,1.0,7.0,80,0.00,,SCT250,0.00,VWS V14.01,2013-06-04 07:46:00,
2013-06-04 02:51:00,60.6,54.4,29.85,East,98,2.0,5.0,80,0.00,,SCT250,0.00,VWS V14.01,2013-06-04 07:51:00,
2013-06-04 02:57:00,60.5,54.7,29.85,ENE,75,2.0,7.0,81,0.00,,SCT250,0.00,VWS V14.01,2013-06-04 07:57:00,
2013-06-04 03:02:00,60.5,54.3,29.85,ESE,122,4.0,7.0,80,0.00,,SCT250,0.00,VWS V14.01,2013-06-04 08:02:00,
2013-06-04 03:07:00,60.5,54.7,29.86,ESE,114,0.0,3.0,81,0.00,,SCT250,0.00,VWS V14.01,2013-06-04 08:07:00,
2013-06-04 03:12:00,60.5,54.7,29.86,SE,143,1.0,4.0,81,0.00,,SCT250,0.00,VWS V14.01,2013-06-04 08:12:00,
2013-06-04 03:17:00,60.4,54.5,29.86,SE,131,0.0,3.0,81,0.00,,SCT250,0.00,VWS V14.01,2013-06-04 08:17:00,
2013-06-04 03:28:00,60.4,54.5,29.86,SSE,162,0.0,1.0,81,0.00,,SCT250,0.00,VWS V14.01,2013-06-04 08:28:00,
2013-06-04 03:33:00,60.3,54.8,29.86,SSE,152,0.0,4.0,82,0.00,,SCT250,0.00,VWS V14.01,2013-06-04 08:33:00,
2013-06-04 03:39:00,60.3,54.8,29.86,SE,131,0.0,5.0,82,0.00,,SCT250,0.00,VWS V14.01,2013-06-04 08:39:00,
2013-06-04 03:44:00,60.4,54.9,29.86,East,100,2.0,3.0,82,0.00,,SCT250,0.00,VWS V14.01,2013-06-04 08:44:00,
2013-06-04 03:49:00,60.4,54.9,29.85,ESE,105,4.0,6.0,82,0.00,,SCT250,0.00,VWS V14.01,2013-06-04 08:49:00,
2013-06-04 03:54:00,60.4,54.9,29.84,ESE,102,2.0,5.0,82,0.00,,,0.00,VWS V14.01,2013-06-04 08:54:00,
2013-06-04 03:59:00,60.4,54.9,29.83,South,176,0.0,6.0,82,0.00,,,0.00,VWS V14.01,2013-06-04 08:59:00,
2013-06-04 04:04:00,60.3,54.8,29.83,SE,141,2.0,4.0,82,0.00,,,0.00,VWS V14.01,2013-06-04 09:04:00,
2013-06-04 04:09:00,60.1,54.9,29.83,SE,136,1.0,5.0,83,0.00,,,0.00,VWS V14.01,2013-06-04 09:09:00,
2013-06-04 04:14:00,60.0,54.8,29.83,SE,146,0.0,3.0,83,0.00,,,0.00,VWS V14.01,2013-06-04 09:14:00,
2013-06-04 04:19:00,60.0,54.8,29.83,East,89,1.0,3.0,83,0.00,,,0.00,VWS V14.01,2013-06-04 09:19:00,
2013-06-04 04:24:00,60.0,54.8,29.84,ESE,107,3.0,5.0,83,0.00,,,0.00,VWS V14.01,2013-06-04 09:24:00,
2013-06-04 04:29:00,60.0,54.8,29.85,ESE,113,1.0,2.0,83,0.00,,,0.00,VWS V14.01,2013-06-04 09:29:00,
2013-06-04 04:34:00,60.1,54.9,29.85,ESE,117,2.0,2.0,83,0.00,,,0.00,VWS V14.01,2013-06-04 09:34:00,
2013-06-04 04:39:00,60.1,54.6,29.84,East,87,3.0,6.0,82,0.00,,,0.00,VWS V14.01,2013-06-04 09:39:00,
2013-06-04 04:44:00,60.0,54.8,29.85,SE,129,0.0,2.0,83,0.00,,,0.00,VWS V14.01,2013-06-04 09:44:00,
2013-06-04 04:49:00,60.0,54.8,29.85,SE,131,1.0,2.0,83,0.00,,,0.00,VWS V14.01,2013-06-04 09:49:00,
2013-06-04 04:55:00,60.1,54.9,29.86,SE,135,6.0,6.0,83,0.00,,OVC090,0.00,VWS V14.01,2013-06-04 09:55:00,
2013-06-04 05:00:00,60.2,55.0,29.86,SSE,155,4.0,6.0,83,0.00,,OVC090,0.00,VWS V14.01,2013-06-04 10:00:00,
2013-06-04 05:05:00,60.3,55.1,29.85,ESE,115,2.0,5.0,83,0.00,,OVC090,0.00,VWS V14.01,2013-06-04 10:05:00,
2013-06-04 05:10:00,60.3,54.8,29.85,SE,129,6.0,7.0,82,0.00,,OVC090,0.00,VWS V14.01,2013-06-04 10:10:00,
2013-06-04 05:15:00,60.4,54.9,29.85,ESE,103,2.0,4.0,82,0.00,,OVC090,0.00,VWS V14.01,2013-06-04 10:15:00,
2013-06-04 05:20:00,60.4,54.9,29.85,ENE,68,3.0,5.0,82,0.00,,OVC090,0.00,VWS V14.01,2013-06-04 10:20:00,
2013-06-04 05:25:00,60.4,54.9,29.85,ESE,108,3.0,6.0,82,0.00,,OVC090,0.00,VWS V14.01,2013-06-04 10:25:00,
2013-06-04 05:30:00,60.3,54.8,29.85,ENE,62,3.0,7.0,82,0.00,,OVC090,0.00,VWS V14.01,2013-06-04 10:30:00,
2013-06-04 05:35:00,60.2,54.7,29.85,SSE,161,1.0,4.0,82,0.00,,OVC090,0.00,VWS V14.01,2013-06-04 10:35:00,
2013-06-04 05:40:00,60.1,54.6,29.84,ESE,116,3.0,8.0,82,0.00,,OVC090,0.00,VWS V14.01,2013-06-04 10:40:00,
2013-06-04 06:05:00,60.5,55.0,29.86,East,93,2.0,5.0,82,0.00,,OVC090,0.00,VWS V14.01,2013-06-04 11:05:00,
2013-06-04 06:12:00,60.5,55.0,29.86,ESE,120,2.0,4.0,82,0.00,,OVC090,0.00,VWS V14.01,2013-06-04 11:12:00,
2013-06-04 06:17:00,60.6,55.1,29.86,ESE,119,3.0,5.0,82,0.00,,OVC090,0.00,VWS V14.01,2013-06-04 11:17:00,
2013-06-04 06:22:00,60.5,55.0,29.85,SE,132,1.0,4.0,82,0.00,,,0.00,VWS V14.01,2013-06-04 11:22:00,
2013-06-04 06:27:00,60.5,55.0,29.85,SSE,156,5.0,8.0,82,0.00,,,0.00,VWS V14.01,2013-06-04 11:27:00,
2013-06-04 06:32:00,60.5,55.0,29.84,SSE,164,3.0,5.0,82,0.00,,,0.00,VWS V14.01,2013-06-04 11:32:00,
2013-06-04 06:37:00,60.4,54.9,29.84,SE,138,2.0,4.0,82,0.00,,,0.00,VWS V14.01,2013-06-04 11:37:00,
2013-06-04 06:42:00,60.3,55.1,29.84,South,177,4.0,6.0,83,0.00,,,0.00,VWS V14.01,2013-06-04 11:42:00,
2013-06-04 06:47:00,60.1,54.9,29.84,SSE,163,2.0,5.0,83,0.00,,,0.00,VWS V14.01,2013-06-04 11:47:00,
2013-06-04 06:52:00,60.1,54.9,29.85,ESE,120,3.0,7.0,83,0.00,,,0.00,VWS V14.01,2013-06-04 11:52:00,
2013-06-04 06:57:00,60.1,55.3,29.85,ESE,106,4.0,5.0,84,0.00,,,0.00,VWS V14.01,2013-06-04 11:57:00,
2013-06-04 07:02:00,60.2,55.0,29.85,East,93,2.0,7.0,83,0.00,,,0.00,VWS V14.01,2013-06-04 12:02:00,
2013-06-04 07:08:00,60.3,55.1,29.86,East,83,1.0,2.0,83,0.00,,,0.00,VWS V14.01,2013-06-04 12:08:00,
2013-06-04 07:13:00,60.4,55.2,29.87,East,79,0.0,2.0,83,0.00,,,0.00,VWS V14.01,2013-06-04 12:13:00,
2013-06-04 07:18:00,60.5,55.3,29.88,East,79,0.0,1.0,83,0.00,,,0.00,VWS V14.01,2013-06-04 12:18:00,
2013-06-04 07:23:00,60.5,55.3,29.89,ENE,77,0.0,1.0,83,0.00,,,0.00,VWS V14.01,2013-06-04 12:23:00,
2013-06-04 07:32:00,60.8,55.6,29.90,ENE,68,0.0,0.0,83,0.00,,,0.00,VWS V14.01,2013-06-04 12:32:00,
2013-06-04 07:38:00,61.2,56.0,29.90,ENE,68,0.0,1.0,83,0.00,,,0.00,VWS V14.01,2013-06-04 12:38:00,
2013-06-04 07:46:00,62.4,56.5,29.89,ENE,72,1.0,3.0,81,0.00,,,0.00,VWS V14.01,2013-06-04 12:46:00,
2013-06-04 07:52:00,62.9,56.3,29.89,East,95,2.0,5.0,79,0.00,,,0.00,VWS V14.01,2013-06-04 12:52:00,
2013-06-04 07:59:00,62.9,56.3,29.89,East,93,2.0,8.0,79,0.00,,,0.00,VWS V14.01,2013-06-04 12:59:00,
2013-06-04 08:05:00,62.9,56.3,29.89,NE,46,3.0,7.0,79,0.00,,,0.00,VWS V14.01,2013-06-04 13:05:00,
2013-06-04 08:10:00,63.1,56.8,29.89,ENE,70,1.0,5.0,80,0.00,,,0.00,VWS V14.01,2013-06-04 13:10:00,
2013-06-04 08:15:00,63.6,57.0,29.89,ESE,103,1.0,6.0,79,0.00,,,0.00,VWS V14.01,2013-06-04 13:15:00,
2013-06-04 08:20:00,63.8,56.8,29.89,East,99,2.0,5.0,78,0.00,,,0.00,VWS V14.01,2013-06-04 13:20:00,
2013-06-04 08:26:00,64.1,57.1,29.89,ENE,58,4.0,7.0,78,0.00,,,0.00,VWS V14.01,2013-06-04 13:26:00,
2013-06-04 08:31:00,64.1,56.8,29.89,ENE,62,5.0,10.0,77,0.00,,,0.00,VWS V14.01,2013-06-04 13:31:00,
2013-06-04 08:37:00,63.7,56.4,29.89,ESE,111,5.0,9.0,77,0.00,,,0.00,VWS V14.01,2013-06-04 13:37:00,
2013-06-04 08:42:00,63.2,56.2,29.88,ENE,71,7.0,11.0,78,0.00,,,0.00,VWS V14.01,2013-06-04 13:42:00,
2013-06-04 08:47:00,63.3,57.0,29.88,SE,130,4.0,7.0,80,0.00,,,0.00,VWS V14.01,2013-06-04 13:47:00,
2013-06-04 08:52:00,63.5,56.9,29.87,ESE,118,4.0,7.0,79,0.00,,OVC250,0.00,VWS V14.01,2013-06-04 13:52:00,
2013-06-04 08:57:00,63.4,56.8,29.87,East,79,5.0,11.0,79,0.00,,OVC250,0.00,VWS V14.01,2013-06-04 13:57:00,
2013-06-04 09:03:00,63.3,56.7,29.86,ESE,120,10.0,10.0,79,0.00,,OVC250,0.00,VWS V14.01,2013-06-04 14:03:00,
2013-06-04 09:08:00,63.4,56.8,29.87,ESE,104,3.0,7.0,79,0.00,,OVC250,0.00,VWS V14.01,2013-06-04 14:08:00,
2013-06-04 09:13:00,63.6,57.0,29.87,East,100,5.0,11.0,79,0.00,,OVC250,0.00,VWS V14.01,2013-06-04 14:13:00,
2013-06-04 09:18:00,63.7,57.1,29.87,SE,133,0.0,9.0,79,0.00,,OVC250,0.00,VWS V14.01,2013-06-04 14:18:00,
2013-06-04 09:23:00,63.9,57.3,29.87,SSE,168,3.0,6.0,79,0.00,,OVC250,0.00,VWS V14.01,2013-06-04 14:23:00,
2013-06-04 09:28:00,64.0,57.4,29.86,ESE,108,7.0,10.0,79,0.00,,OVC250,0.00,VWS V14.01,2013-06-04 14:28:00,
2013-06-04 09:33:00,64.3,57.7,29.86,East,82,3.0,9.0,79,0.00,,OVC250,0.00,VWS V14.01,2013-06-04 14:33:00,
2013-06-04 09:38:00,64.7,57.7,29.86,SE,143,9.0,12.0,78,0.00,,OVC250,0.00,VWS V14.01,2013-06-04 14:38:00,
2013-06-04 09:47:00,64.8,57.8,29.85,East,100,7.0,14.0,78,0.00,,OVC250,0.00,VWS V14.01,2013-06-04 14:47:00,
2013-06-04 09:52:00,64.9,57.9,29.85,ESE,120,8.0,14.0,78,0.00,,OVC250,0.00,VWS V14.01,2013-06-04 14:52:00,
2013-06-04 09:57:00,65.3,58.3,29.86,East,81,6.0,12.0,78,0.00,,OVC250,0.00,VWS V14.01,2013-06-04 14:57:00,
2013-06-04 10:02:00,65.6,58.6,29.86,SE,138,3.0,9.0,78,0.00,,OVC250,0.00,VWS V14.01,2013-06-04 15:02:00,
2013-06-04 10:07:00,65.6,58.2,29.85,SE,133,3.0,12.0,77,0.00,,OVC250,0.00,VWS V14.01,2013-06-04 15:07:00,
2013-06-04 10:13:00,65.7,58.3,29.85,East,96,6.0,9.0,77,0.00,,OVC250,0.00,VWS V14.01,2013-06-04 15:13:00,
2013-06-04 10:18:00,65.8,58.4,29.86,SSE,160,11.0,16.0,77,0.00,,OVC250,0.00,VWS V14.01,2013-06-04 15:18:00,
2013-06-04 10:23:00,66.0,59.3,29.87,SE,145,3.0,6.0,79,0.00,,OVC250,0.00,VWS V14.01,2013-06-04 15:23:00,
2013-06-04 10:28:00,66.3,59.2,29.88,South,178,4.0,11.0,78,0.00,,OVC250,0.00,VWS V14.01,2013-06-04 15:28:00,
2013-06-04 10:33:00,66.4,59.0,29.87,SSW,201,6.0,11.0,77,0.00,,OVC250,0.00,VWS V14.01,2013-06-04 15:33:00,
2013-06-04 10:38:00,66.4,59.0,29.88,South,188,5.0,11.0,77,0.00,,OVC250,0.00,VWS V14.01,2013-06-04 15:38:00,
2013-06-04 10:44:00,66.4,59.3,29.87,SSE,151,7.0,11.0,78,0.00,,OVC250,0.00,VWS V14.01,2013-06-04 15:44:00,
2013-06-04 10:49:00,66.7,59.3,29.87,SE,135,10.0,11.0,77,0.00,,OVC250,0.00,VWS V14.01,2013-06-04 15:49:00,
2013-06-04 11:05:00,67.3,59.8,29.87,SSW,193,6.0,13.0,77,0.00,,OVC250,0.00,VWS V14.01,2013-06-04 16:05:00,
2013-06-04 11:17:00,68.3,60.8,29.87,South,177,10.0,11.0,77,0.00,,OVC250,0.00,VWS V14.01,2013-06-04 16:17:00,
2013-06-04 11:22:00,68.4,60.5,29.86,East,81,6.0,9.0,76,0.00,,OVC250,0.00,VWS V14.01,2013-06-04 16:22:00,
2013-06-04 11:27:00,68.7,61.2,29.87,SSW,199,5.0,9.0,77,0.00,,OVC250,0.00,VWS V14.01,2013-06-04 16:27:00,
2013-06-04 11:32:00,68.7,60.5,29.87,South,176,6.0,15.0,75,0.00,,OVC250,0.00,VWS V14.01,2013-06-04 16:32:00,
2013-06-04 11:38:00,68.7,60.8,29.87,SSE,165,9.0,9.0,76,0.00,,OVC250,0.00,VWS V14.01,2013-06-04 16:38:00,
2013-06-04 11:43:00,68.7,60.5,29.87,East,84,7.0,12.0,75,0.00,,OVC250,0.00,VWS V14.01,2013-06-04 16:43:00,
2013-06-04 11:48:00,68.8,60.6,29.88,SSE,168,5.0,10.0,75,0.00,,OVC250,0.00,VWS V14.01,2013-06-04 16:48:00,
2013-06-04 11:53:00,68.9,60.7,29.88,South,180,6.0,12.0,75,0.00,,OVC019,0.00,VWS V14.01,2013-06-04 16:53:00,
2013-06-04 11:58:00,69.1,60.8,29.89,SSE,162,8.0,11.0,75,0.00,,OVC019,0.00,VWS V14.01,2013-06-04 16:58:00,
2013-06-04 12:04:00,69.2,61.3,29.88,SSE,162,6.0,8.0,76,0.00,,OVC019,0.00,VWS V14.01,2013-06-04 17:04:00,
2013-06-04 12:09:00,69.3,61.0,29.88,SE,139,7.0,9.0,75,0.00,,OVC019,0.00,VWS V14.01,2013-06-04 17:09:00,
2013-06-04 12:14:00,69.4,61.1,29.88,SE,129,7.0,8.0,75,0.00,,OVC019,0.00,VWS V14.01,2013-06-04 17:14:00,
2013-06-04 12:19:00,69.5,61.2,29.88,SE,136,3.0,9.0,75,0.00,,OVC019,0.00,VWS V14.01,2013-06-04 17:19:00,
2013-06-04 12:24:00,69.5,60.9,29.88,East,82,1.0,6.0,74,0.00,,OVC019,0.00,VWS V14.01,2013-06-04 17:24:00,
2013-06-04 12:29:00,69.7,61.4,29.88,ESE,120,5.0,7.0,75,0.00,,OVC019,0.00,VWS V14.01,2013-06-04 17:29:00,
2013-06-04 12:34:00,69.7,61.8,29.88,SE,131,2.0,8.0,76,0.00,,OVC019,0.00,VWS V14.01,2013-06-04 17:34:00,
2013-06-04 12:39:00,69.8,61.5,29.88,SE,143,5.0,8.0,75,0.00,,OVC019,0.00,VWS V14.01,2013-06-04 17:39:00,
2013-06-04 12:45:00,69.9,61.6,29.88,SSE,166,5.0,7.0,75,0.00,,OVC019,0.00,VWS V14.01,2013-06-04 17:45:00,
2013-06-04 12:50:00,69.6,61.3,29.88,SSE,168,3.0,6.0,75,0.00,,OVC019,0.00,VWS V14.01,2013-06-04 17:50:00,
2013-06-04 12:55:00,69.5,61.2,29.88,South,177,3.0,5.0,75,0.00,,OVC019,0.00,VWS V14.01,2013-06-04 17:55:00,
2013-06-04 13:00:00,69.5,61.6,29.88,SSE,164,6.0,8.0,76,0.00,,OVC019,0.00,VWS V14.01,2013-06-04 18:00:00,
2013-06-04 13:05:00,69.7,61.8,29.89,South,174,6.0,7.0,76,0.00,,OVC025,0.00,VWS V14.01,2013-06-04 18:05:00,
2013-06-04 13:10:00,69.7,61.8,29.88,South,189,9.0,12.0,76,0.00,,OVC025,0.00,VWS V14.01,2013-06-04 18:10:00,
2013-06-04 13:15:00,69.5,61.6,29.89,South,182,9.0,14.0,76,0.00,,OVC025,0.00,VWS V14.01,2013-06-04 18:15:00,
2013-06-04 13:20:00,69.4,61.9,29.88,South,182,6.0,8.0,77,0.00,,OVC025,0.00,VWS V14.01,2013-06-04 18:20:00,
2013-06-04 13:26:00,69.6,61.7,29.88,SSW,193,5.0,10.0,76,0.00,,OVC025,0.00,VWS V14.01,2013-06-04 18:26:00,
2013-06-04 13:31:00,69.6,61.7,29.88,South,169,9.0,10.0,76,0.00,,OVC025,0.00,VWS V14.01,2013-06-04 18:31:00,
2013-06-04 13:37:00,69.5,62.0,29.88,South,176,7.0,10.0,77,0.00,,OVC025,0.00,VWS V14.01,2013-06-04 18:37:00,
2013-06-04 13:42:00,69.5,62.0,29.88,South,170,7.0,12.0,77,0.00,,OVC025,0.00,VWS V14.01,2013-06-04 18:42:00,
2013-06-04 13:48:00,69.6,61.7,29.87,South,178,4.0,12.0,76,0.00,,OVC025,0.00,VWS V14.01,2013-06-04 18:48:00,
2013-06-04 13:53:00,69.8,61.9,29.87,SSE,149,5.0,12.0,76,0.00,,BKN250,0.00,VWS V14.01,2013-06-04 18:53:00,
2013-06-04 13:58:00,70.0,62.1,29.87,SSE,168,6.0,12.0,76,0.00,,BKN250,0.00,VWS V14.01,2013-06-04 18:58:00,
2013-06-04 14:04:00,69.9,62.0,29.88,SSW,193,6.0,9.0,76,0.00,,BKN250,0.00,VWS V14.01,2013-06-04 19:04:00,
2013-06-04 14:11:00,70.2,62.7,29.87,SSE,150,9.0,9.0,77,0.00,,BKN250,0.00,VWS V14.01,2013-06-04 19:11:00,
2013-06-04 14:16:00,70.1,62.6,29.87,South,174,6.0,9.0,77,0.00,,BKN250,0.00,VWS V14.01,2013-06-04 19:16:00,
2013-06-04 14:21:00,70.1,62.6,29.87,South,172,7.0,9.0,77,0.00,,BKN250,0.00,VWS V14.01,2013-06-04 19:21:00,
2013-06-04 14:31:00,70.0,62.5,29.87,SSE,160,7.0,11.0,77,0.00,,BKN250,0.00,VWS V14.01,2013-06-04 19:31:00,
2013-06-04 14:36:00,70.1,62.6,29.87,SE,145,6.0,9.0,77,0.00,,BKN250,0.00,VWS V14.01,2013-06-04 19:36:00,
2013-06-04 14:42:00,70.3,62.8,29.87,South,182,4.0,9.0,77,0.00,,BKN250,0.00,VWS V14.01,2013-06-04 19:42:00,
2013-06-04 14:47:00,70.3,63.1,29.87,South,171,7.0,10.0,78,0.00,,BKN250,0.00,VWS V14.01,2013-06-04 19:47:00,
2013-06-04 15:17:00,70.4,63.2,29.87,SSE,154,4.0,6.0,78,0.00,,BKN250,0.00,VWS V14.01,2013-06-04 20:17:00,
2013-06-04 15:22:00,70.6,63.4,29.87,SSE,166,4.0,8.0,78,0.00,,BKN250,0.00,VWS V14.01,2013-06-04 20:22:00,
2013-06-04 15:41:00,70.8,63.2,29.87,South,169,1.0,5.0,77,0.00,,BKN250,0.00,VWS V14.01,2013-06-04 20:41:00,
2013-06-04 15:46:00,70.9,63.3,29.87,SE,140,2.0,5.0,77,0.00,,BKN250,0.00,VWS V14.01,2013-06-04 20:46:00,
2013-06-04 15:58:00,71.5,63.5,29.87,East,87,3.0,3.0,76,0.00,,BKN250,0.00,VWS V14.01,2013-06-04 20:58:00,
2013-06-04 16:09:00,72.1,63.8,29.87,SSE,160,5.0,7.0,75,0.00,,BKN250,0.00,VWS V14.01,2013-06-04 21:09:00,
2013-06-04 16:23:00,72.2,63.8,29.87,ENE,78,1.0,4.0,75,0.00,,BKN250,0.00,VWS V14.01,2013-06-04 21:23:00,
2013-06-04 16:28:00,72.4,64.0,29.87,East,99,1.0,4.0,75,0.00,,BKN250,0.00,VWS V14.01,2013-06-04 21:28:00,
2013-06-04 16:39:00,72.4,64.0,29.86,SE,131,2.0,4.0,75,0.00,,OVC025,0.00,VWS V14.01,2013-06-04 21:39:00,
2013-06-04 16:44:00,72.7,64.3,29.86,East,80,3.0,3.0,75,0.00,,OVC025,0.00,VWS V14.01,2013-06-04 21:44:00,
2013-06-04 16:50:00,73.3,64.1,29.86,East,101,3.0,7.0,73,0.00,,OVC025,0.00,VWS V14.01,2013-06-04 21:50:00,
2013-06-04 17:03:00,74.2,64.6,29.86,SSE,158,4.0,11.0,72,0.00,,OVC031,0.00,VWS V14.01,2013-06-04 22:03:00,
2013-06-04 17:08:00,74.2,64.6,29.86,SSE,158,5.0,10.0,72,0.00,,OVC031,0.00,VWS V14.01,2013-06-04 22:08:00,
2013-06-04 17:24:00,74.6,64.6,29.86,South,171,8.0,9.0,71,0.00,,OVC031,0.00,VWS V14.01,2013-06-04 22:24:00,
2013-06-04 17:29:00,74.4,64.8,29.86,SSE,152,6.0,7.0,72,0.00,,OVC031,0.00,VWS V14.01,2013-06-04 22:29:00,
2013-06-04 17:49:00,73.8,64.6,29.86,SE,143,2.0,6.0,73,0.00,,OVC031,0.00,VWS V14.01,2013-06-04 22:49:00,
2013-06-04 17:54:00,73.8,64.2,29.86,SSE,168,3.0,8.0,72,0.00,,OVC031,0.00,VWS V14.01,2013-06-04 22:54:00,
2013-06-04 17:59:00,73.8,64.6,29.86,SSE,164,1.0,4.0,73,0.00,,OVC031,0.00,VWS V14.01,2013-06-04 22:59:00,
2013-06-04 18:04:00,73.8,64.2,29.86,SE,146,4.0,7.0,72,0.00,,OVC031,0.00,VWS V14.01,2013-06-04 23:04:00,
2013-06-04 18:09:00,73.8,64.6,29.86,SSE,162,4.0,6.0,73,0.00,,OVC031,0.00,VWS V14.01,2013-06-04 23:09:00,
2013-06-04 18:17:00,73.8,64.2,29.86,South,177,4.0,7.0,72,0.00,,OVC031,0.00,VWS V14.01,2013-06-04 23:17:00,
2013-06-04 18:24:00,73.8,64.2,29.86,SSE,160,2.0,4.0,72,0.00,,OVC031,0.00,VWS V14.01,2013-06-04 23:24:00,
2013-06-04 18:31:00,73.8,64.2,29.86,SSE,152,4.0,6.0,72,0.00,,OVC035,0.00,VWS V14.01,2013-06-04 23:31:00,
2013-06-04 18:55:00,73.3,64.5,29.86,SE,132,1.0,4.0,74,0.00,,OVC035,0.00,VWS V14.01,2013-06-04 23:55:00,
2013-06-04 19:00:00,73.3,64.9,29.86,SSE,147,1.0,3.0,75,0.00,,OVC035,0.00,VWS V14.01,2013-06-05 00:00:00,
2013-06-04 19:05:00,73.3,64.5,29.86,South,182,0.0,2.0,74,0.00,,OVC035,0.00,VWS V14.01,2013-06-05 00:05:00,
2013-06-04 19:10:00,73.2,64.4,29.86,ESE,108,2.0,2.0,74,0.00,,OVC035,0.00,VWS V14.01,2013-06-05 00:10:00,
2013-06-04 19:15:00,73.2,64.4,29.86,SE,142,0.0,2.0,74,0.00,,OVC041,0.00,VWS V14.01,2013-06-05 00:15:00,
2013-06-04 19:20:00,73.2,64.4,29.86,ENE,73,2.0,5.0,74,0.00,,OVC041,0.00,VWS V14.01,2013-06-05 00:20:00,
2013-06-04 19:25:00,73.1,64.7,29.86,ESE,114,1.0,1.0,75,0.00,,OVC041,0.00,VWS V14.01,2013-06-05 00:25:00,
2013-06-04 19:30:00,73.0,64.2,29.86,ESE,110,1.0,3.0,74,0.00,,OVC041,0.00,VWS V14.01,2013-06-05 00:30:00,
2013-06-04 19:35:00,72.8,64.4,29.87,ENE,77,0.0,3.0,75,0.00,,OVC041,0.00,VWS V14.01,2013-06-05 00:35:00,
2013-06-04 19:40:00,72.6,64.2,29.87,East,90,0.0,2.0,75,0.00,,OVC041,0.00,VWS V14.01,2013-06-05 00:40:00,
2013-06-04 19:45:00,72.5,64.5,29.87,ESE,102,0.0,3.0,76,0.00,,OVC041,0.00,VWS V14.01,2013-06-05 00:45:00,
2013-06-04 19:50:00,72.3,64.3,29.87,East,87,3.0,3.0,76,0.00,,OVC041,0.00,VWS V14.01,2013-06-05 00:50:00,
2013-06-04 19:55:00,72.1,64.1,29.87,ESE,114,0.0,1.0,76,0.00,,OVC041,0.00,VWS V14.01,2013-06-05 00:55:00,
2013-06-04 20:00:00,71.9,64.3,29.88,East,91,0.0,0.0,77,0.00,,OVC041,0.00,VWS V14.01,2013-06-05 01:00:00,
2013-06-04 20:05:00,71.8,64.2,29.88,East,91,0.0,0.0,77,0.00,,OVC041,0.00,VWS V14.01,2013-06-05 01:05:00,
2013-06-04 20:10:00,71.7,64.1,29.88,East,91,0.0,1.0,77,0.00,,OVC041,0.00,VWS V14.01,2013-06-05 01:10:00,
2013-06-04 20:16:00,71.6,64.4,29.88,East,91,0.0,1.0,78,0.00,,OVC041,0.00,VWS V14.01,2013-06-05 01:16:00,
2013-06-04 20:21:00,71.5,64.3,29.88,East,91,0.0,2.0,78,0.00,,OVC041,0.00,VWS V14.01,2013-06-05 01:21:00,
2013-06-04 20:26:00,71.3,64.1,29.88,East,91,1.0,2.0,78,0.00,,OVC041,0.00,VWS V14.01,2013-06-05 01:26:00,
2013-06-04 20:31:00,71.0,64.2,29.88,East,91,0.0,2.0,79,0.00,,OVC041,0.00,VWS V14.01,2013-06-05 01:31:00,
2013-06-04 20:36:00,70.7,63.9,29.88,East,91,1.0,2.0,79,0.00,,OVC041,0.00,VWS V14.01,2013-06-05 01:36:00,
2013-06-04 20:41:00,70.5,64.0,29.89,East,88,2.0,2.0,80,0.00,,OVC041,0.00,VWS V14.01,2013-06-05 01:41:00,
2013-06-04 20:46:00,70.4,63.9,29.89,East,87,0.0,1.0,80,0.00,,OVC041,0.00,VWS V14.01,2013-06-05 01:46:00,
2013-06-04 20:51:00,70.3,64.2,29.89,East,87,1.0,1.0,81,0.00,,OVC045,0.00,VWS V14.01,2013-06-05 01:51:00,
2013-06-04 20:56:00,70.2,64.1,29.89,NNE,14,1.0,4.0,81,0.00,,OVC045,0.00,VWS V14.01,2013-06-05 01:56:00,
2013-06-04 21:01:00,70.0,63.9,29.89,North,4,1.0,3.0,81,0.00,,OVC045,0.00,VWS V14.01,2013-06-05 02:01:00,
2013-06-04 21:06:00,69.8,63.7,29.89,NNE,16,0.0,2.0,81,0.00,,OVC045,0.00,VWS V14.01,2013-06-05 02:06:00,
2013-06-04 21:11:00,69.7,63.6,29.89,NNE,16,1.0,2.0,81,0.00,,OVC045,0.00,VWS V14.01,2013-06-05 02:11:00,
2013-06-04 21:16:00,69.6,63.9,29.89,NNE,16,1.0,1.0,82,0.00,,OVC045,0.00,VWS V14.01,2013-06-05 02:16:00,
2013-06-04 21:21:00,69.5,63.8,29.89,NNE,16,0.0,2.0,82,0.00,,OVC045,0.00,VWS V14.01,2013-06-05 02:21:00,
2013-06-04 21:26:00,69.4,63.7,29.89,NNE,16,1.0,2.0,82,0.00,,OVC045,0.00,VWS V14.01,2013-06-05 02:26:00,
2013-06-04 21:32:00,69.3,63.6,29.89,NNE,16,2.0,3.0,82,0.00,,OVC045,0.00,VWS V14.01,2013-06-05 02:32:00,
2013-06-04 21:37:00,69.2,63.8,29.89,NNE,16,4.0,4.0,83,0.00,,OVC045,0.00,VWS V14.01,2013-06-05 02:37:00,
2013-06-04 21:42:00,69.1,63.7,29.89,NNE,16,1.0,3.0,83,0.00,,OVC060,0.00,VWS V14.01,2013-06-05 02:42:00,
2013-06-04 21:47:00,69.0,63.6,29.89,NNE,23,3.0,4.0,83,0.00,,OVC060,0.00,VWS V14.01,2013-06-05 02:47:00,
2013-06-04 21:52:00,68.8,63.8,29.89,NNE,17,2.0,5.0,84,0.00,,OVC060,0.00,VWS V14.01,2013-06-05 02:52:00,
2013-06-04 21:57:00,68.7,63.7,29.89,NE,48,0.0,4.0,84,0.00,,OVC060,0.00,VWS V14.01,2013-06-05 02:57:00,
2013-06-04 22:02:00,68.6,63.9,29.89,NNE,33,0.0,3.0,85,0.00,,OVC060,0.00,VWS V14.01,2013-06-05 03:02:00,
2013-06-04 22:07:00,68.6,63.9,29.89,NNE,23,1.0,3.0,85,0.00,,OVC060,0.00,VWS V14.01,2013-06-05 03:07:00,
2013-06-04 22:12:00,68.5,63.8,29.89,NNE,25,1.0,2.0,85,0.00,,OVC060,0.00,VWS V14.01,2013-06-05 03:12:00,
2013-06-04 22:17:00,68.5,63.8,29.90,North,10,1.0,2.0,85,0.00,,OVC060,0.00,VWS V14.01,2013-06-05 03:17:00,
2013-06-04 22:22:00,68.4,63.7,29.90,NNE,33,2.0,4.0,85,0.00,,OVC060,0.00,VWS V14.01,2013-06-05 03:22:00,
2013-06-04 22:27:00,68.3,64.0,29.90,NNE,33,0.0,1.0,86,0.00,,OVC060,0.00,VWS V14.01,2013-06-05 03:27:00,
2013-06-04 22:32:00,68.3,64.0,29.90,NNE,33,0.0,0.0,86,0.00,,OVC060,0.00,VWS V14.01,2013-06-05 03:32:00,
2013-06-04 22:37:00,68.3,64.0,29.90,NNE,33,0.0,1.0,86,0.00,,OVC060,0.00,VWS V14.01,2013-06-05 03:37:00,
2013-06-04 22:42:00,68.2,63.9,29.90,NNE,33,0.0,0.0,86,0.00,,OVC060,0.00,VWS V14.01,2013-06-05 03:42:00,
2013-06-04 22:47:00,68.2,64.2,29.90,NNE,33,0.0,0.0,87,0.00,,OVC060,0.00,VWS V14.01,2013-06-05 03:47:00,
2013-06-04 22:52:00,68.1,64.1,29.90,NNE,33,0.0,0.0,87,0.00,,BKN250,0.00,VWS V14.01,2013-06-05 03:52:00,
2013-06-04 22:57:00,68.1,64.1,29.90,SW,219,1.0,3.0,87,0.00,,BKN250,0.00,VWS V14.01,2013-06-05 03:57:00,
2013-06-04 23:01:00,68.1,64.1,29.90,SW,227,1.0,2.0,87,0.00,,BKN250,0.00,VWS V14.01,2013-06-05 04:01:00,
2013-06-04 23:06:00,68.0,64.3,29.91,NNW,339,0.0,2.0,88,0.00,,BKN250,0.00,VWS V14.01,2013-06-05 04:06:00,
2013-06-04 23:11:00,68.0,64.0,29.91,NNW,336,4.0,6.0,87,0.00,,BKN250,0.00,VWS V14.01,2013-06-05 04:11:00,
2013-06-04 23:16:00,67.7,64.0,29.91,NW,323,6.0,6.0,88,0.00,,BKN250,0.01,VWS V14.01,2013-06-05 04:16:00,
2013-06-04 23:21:00,67.5,64.2,29.92,WNW,294,1.0,2.0,89,0.00,,BKN250,0.01,VWS V14.01,2013-06-05 04:21:00,
2013-06-04 23:40:00,67.2,64.2,29.92,WNW,283,0.0,0.0,90,0.00,,BKN250,0.13,VWS V14.01,2013-06-05 04:40:00,
2013-06-04 23:45:00,67.0,64.3,29.92,WNW,283,0.0,1.0,91,0.00,,BKN250,0.14,VWS V14.01,2013-06-05 04:45:00,
2013-06-04 23:50:00,66.7,64.0,29.92,North,11,1.0,3.0,91,0.00,,BKN250,0.14,VWS V14.01,2013-06-05 04:50:00,
2013-06-04 23:55:00,66.4,64.0,29.92,North,4,1.0,1.0,92,0.00,,BKN250,0.14,VWS V14.01,2013-06-05 04:55:00,